sensor_id;sensor_type;location;lat;lon;timestamp;P1;durP1;ratioP1;P2;durP2;ratioP2
80503;SDS011;69825;51.190;6.808;2023-07-08T00:01:34;0.50;;;0.50;;
80503;SDS011;69825;51.190;6.808;2023-07-08T00:04:00;0.50;;;0.50;;
80503;SDS011;69825;51.190;6.808;2023-07-08T00:06:26;0.50;;;0.50;;
80503;SDS011;69825;51.190;6.808;2023-07-08T00:08:52;0.60;;;0.60;;
80503;SDS011;69825;51.190;6.808;2023-07-08T00:11:18;0.60;;;0.60;;
80503;SDS011;69825;51.190;6.808;2023-07-08T00:13:44;0.40;;;0.40;;
80503;SDS011;69825;51.190;6.808;2023-07-08T00:16:10;0.60;;;0.60;;
80503;SDS011;69825;51.190;6.808;2023-07-08T00:18:38;0.50;;;0.50;;
80503;SDS011;69825;51.190;6.808;2023-07-08T00:21:04;0.50;;;0.50;;
80503;SDS011;69825;51.190;6.808;2023-07-08T00:23:33;0.60;;;0.60;;
80503;SDS011;69825;51.190;6.808;2023-07-08T00:26:00;0.40;;;0.40;;
80503;SDS011;69825;51.190;6.808;2023-07-08T00:28:26;0.45;;;0.45;;
80503;SDS011;69825;51.190;6.808;2023-07-08T00:30:51;0.50;;;0.50;;
80503;SDS011;69825;51.190;6.808;2023-07-08T00:33:18;0.45;;;0.45;;
80503;SDS011;69825;51.190;6.808;2023-07-08T00:35:43;0.50;;;0.50;;
80503;SDS011;69825;51.190;6.808;2023-07-08T00:40:52;0.40;;;0.40;;
80503;SDS011;69825;51.190;6.808;2023-07-08T00:43:18;0.50;;;0.50;;
80503;SDS011;69825;51.190;6.808;2023-07-08T00:45:50;0.55;;;0.55;;
80503;SDS011;69825;51.190;6.808;2023-07-08T00:48:25;0.60;;;0.60;;
80503;SDS011;69825;51.190;6.808;2023-07-08T00:50:58;0.45;;;0.45;;
80503;SDS011;69825;51.190;6.808;2023-07-08T00:53:25;0.40;;;0.40;;
80503;SDS011;69825;51.190;6.808;2023-07-08T00:56:15;0.40;;;0.40;;
80503;SDS011;69825;51.190;6.808;2023-07-08T00:58:46;0.50;;;0.50;;
80503;SDS011;69825;51.190;6.808;2023-07-08T01:01:16;0.50;;;0.50;;
80503;SDS011;69825;51.190;6.808;2023-07-08T01:03:47;0.60;;;0.60;;
80503;SDS011;69825;51.190;6.808;2023-07-08T01:06:26;0.47;;;0.47;;
80503;SDS011;69825;51.190;6.808;2023-07-08T01:08:56;0.40;;;0.40;;
80503;SDS011;69825;51.190;6.808;2023-07-08T01:11:27;0.38;;;0.38;;
80503;SDS011;69825;51.190;6.808;2023-07-08T01:13:54;0.50;;;0.50;;
80503;SDS011;69825;51.190;6.808;2023-07-08T01:16:19;0.47;;;0.47;;
80503;SDS011;69825;51.190;6.808;2023-07-08T01:18:46;0.50;;;0.50;;
80503;SDS011;69825;51.190;6.808;2023-07-08T01:23:55;0.55;;;0.55;;
80503;SDS011;69825;51.190;6.808;2023-07-08T01:26:24;0.50;;;0.50;;
80503;SDS011;69825;51.190;6.808;2023-07-08T01:28:50;0.50;;;0.50;;
80503;SDS011;69825;51.190;6.808;2023-07-08T01:31:18;0.47;;;0.47;;
80503;SDS011;69825;51.190;6.808;2023-07-08T01:33:44;0.40;;;0.40;;
80503;SDS011;69825;51.190;6.808;2023-07-08T01:36:10;0.63;;;0.40;;
80503;SDS011;69825;51.190;6.808;2023-07-08T01:38:36;0.40;;;0.40;;
80503;SDS011;69825;51.190;6.808;2023-07-08T01:41:03;0.47;;;0.47;;
80503;SDS011;69825;51.190;6.808;2023-07-08T01:43:28;0.40;;;0.40;;
80503;SDS011;69825;51.190;6.808;2023-07-08T01:45:54;0.50;;;0.50;;
80503;SDS011;69825;51.190;6.808;2023-07-08T01:48:23;0.50;;;0.50;;
80503;SDS011;69825;51.190;6.808;2023-07-08T01:50:56;0.40;;;0.40;;
80503;SDS011;69825;51.190;6.808;2023-07-08T01:53:29;0.57;;;0.57;;
80503;SDS011;69825;51.190;6.808;2023-07-08T01:55:59;0.50;;;0.50;;
80503;SDS011;69825;51.190;6.808;2023-07-08T01:58:26;0.50;;;0.50;;
80503;SDS011;69825;51.190;6.808;2023-07-08T02:00:52;0.60;;;0.60;;
80503;SDS011;69825;51.190;6.808;2023-07-08T02:03:19;0.50;;;0.50;;
80503;SDS011;69825;51.190;6.808;2023-07-08T02:05:44;0.35;;;0.35;;
80503;SDS011;69825;51.190;6.808;2023-07-08T02:08:10;0.50;;;0.50;;
80503;SDS011;69825;51.190;6.808;2023-07-08T02:10:36;0.40;;;0.40;;
80503;SDS011;69825;51.190;6.808;2023-07-08T02:13:03;0.52;;;0.52;;
80503;SDS011;69825;51.190;6.808;2023-07-08T02:15:28;0.52;;;0.52;;
80503;SDS011;69825;51.190;6.808;2023-07-08T02:17:54;0.50;;;0.50;;
80503;SDS011;69825;51.190;6.808;2023-07-08T02:20:19;0.50;;;0.50;;
80503;SDS011;69825;51.190;6.808;2023-07-08T02:22:45;0.40;;;0.40;;
80503;SDS011;69825;51.190;6.808;2023-07-08T02:25:10;0.45;;;0.45;;
80503;SDS011;69825;51.190;6.808;2023-07-08T02:27:36;0.50;;;0.50;;
80503;SDS011;69825;51.190;6.808;2023-07-08T02:30:02;0.60;;;0.60;;
80503;SDS011;69825;51.190;6.808;2023-07-08T02:32:28;0.40;;;0.40;;
80503;SDS011;69825;51.190;6.808;2023-07-08T02:34:53;0.52;;;0.52;;
80503;SDS011;69825;51.190;6.808;2023-07-08T02:37:18;0.40;;;0.40;;
80503;SDS011;69825;51.190;6.808;2023-07-08T02:39:44;0.50;;;0.50;;
80503;SDS011;69825;51.190;6.808;2023-07-08T02:42:09;0.40;;;0.40;;
80503;SDS011;69825;51.190;6.808;2023-07-08T02:44:34;0.50;;;0.50;;
80503;SDS011;69825;51.190;6.808;2023-07-08T02:47:00;0.40;;;0.40;;
80503;SDS011;69825;51.190;6.808;2023-07-08T02:49:25;0.50;;;0.50;;
80503;SDS011;69825;51.190;6.808;2023-07-08T02:51:51;0.47;;;0.47;;
80503;SDS011;69825;51.190;6.808;2023-07-08T02:54:16;0.50;;;0.50;;
80503;SDS011;69825;51.190;6.808;2023-07-08T02:56:41;0.50;;;0.50;;
80503;SDS011;69825;51.190;6.808;2023-07-08T02:59:07;0.40;;;0.40;;
80503;SDS011;69825;51.190;6.808;2023-07-08T03:01:32;0.50;;;0.50;;
80503;SDS011;69825;51.190;6.808;2023-07-08T03:03:59;0.50;;;0.50;;
80503;SDS011;69825;51.190;6.808;2023-07-08T03:06:25;0.50;;;0.50;;
80503;SDS011;69825;51.190;6.808;2023-07-08T03:08:50;0.50;;;0.50;;
80503;SDS011;69825;51.190;6.808;2023-07-08T03:11:16;0.40;;;0.40;;
80503;SDS011;69825;51.190;6.808;2023-07-08T03:13:41;0.40;;;0.40;;
80503;SDS011;69825;51.190;6.808;2023-07-08T03:16:07;0.60;;;0.60;;
80503;SDS011;69825;51.190;6.808;2023-07-08T03:18:37;0.50;;;0.50;;
80503;SDS011;69825;51.190;6.808;2023-07-08T03:21:11;0.40;;;0.40;;
80503;SDS011;69825;51.190;6.808;2023-07-08T03:23:37;0.50;;;0.50;;
80503;SDS011;69825;51.190;6.808;2023-07-08T03:26:03;0.40;;;0.40;;
80503;SDS011;69825;51.190;6.808;2023-07-08T03:28:28;0.47;;;0.47;;
80503;SDS011;69825;51.190;6.808;2023-07-08T03:30:53;0.50;;;0.50;;
80503;SDS011;69825;51.190;6.808;2023-07-08T03:33:19;0.47;;;0.47;;
80503;SDS011;69825;51.190;6.808;2023-07-08T03:35:44;0.50;;;0.50;;
80503;SDS011;69825;51.190;6.808;2023-07-08T03:38:10;0.50;;;0.50;;
80503;SDS011;69825;51.190;6.808;2023-07-08T03:40:35;0.60;;;0.60;;
80503;SDS011;69825;51.190;6.808;2023-07-08T03:43:01;0.43;;;0.43;;
80503;SDS011;69825;51.190;6.808;2023-07-08T03:45:26;0.40;;;0.40;;
80503;SDS011;69825;51.190;6.808;2023-07-08T03:47:51;0.40;;;0.40;;
80503;SDS011;69825;51.190;6.808;2023-07-08T03:50:26;0.40;;;0.40;;
80503;SDS011;69825;51.190;6.808;2023-07-08T03:52:52;0.60;;;0.60;;
80503;SDS011;69825;51.190;6.808;2023-07-08T03:55:19;0.50;;;0.50;;
80503;SDS011;69825;51.190;6.808;2023-07-08T03:57:44;0.43;;;0.43;;
80503;SDS011;69825;51.190;6.808;2023-07-08T04:00:10;0.40;;;0.40;;
80503;SDS011;69825;51.190;6.808;2023-07-08T04:02:37;0.45;;;0.45;;
80503;SDS011;69825;51.190;6.808;2023-07-08T04:05:03;0.40;;;0.40;;
80503;SDS011;69825;51.190;6.808;2023-07-08T04:07:29;0.55;;;0.55;;
80503;SDS011;69825;51.190;6.808;2023-07-08T04:09:54;0.47;;;0.47;;
80503;SDS011;69825;51.190;6.808;2023-07-08T04:12:20;0.50;;;0.50;;
80503;SDS011;69825;51.190;6.808;2023-07-08T04:14:45;0.40;;;0.40;;
80503;SDS011;69825;51.190;6.808;2023-07-08T04:17:10;0.60;;;0.60;;
80503;SDS011;69825;51.190;6.808;2023-07-08T04:19:36;0.50;;;0.50;;
80503;SDS011;69825;51.190;6.808;2023-07-08T04:22:04;0.50;;;0.50;;
80503;SDS011;69825;51.190;6.808;2023-07-08T04:24:30;0.50;;;0.50;;
80503;SDS011;69825;51.190;6.808;2023-07-08T04:26:56;0.55;;;0.55;;
80503;SDS011;69825;51.190;6.808;2023-07-08T04:29:22;0.50;;;0.50;;
80503;SDS011;69825;51.190;6.808;2023-07-08T04:31:48;0.50;;;0.50;;
80503;SDS011;69825;51.190;6.808;2023-07-08T04:34:13;0.52;;;0.52;;
80503;SDS011;69825;51.190;6.808;2023-07-08T04:36:40;0.47;;;0.47;;
80503;SDS011;69825;51.190;6.808;2023-07-08T04:39:06;0.50;;;0.50;;
80503;SDS011;69825;51.190;6.808;2023-07-08T04:41:33;0.50;;;0.50;;
80503;SDS011;69825;51.190;6.808;2023-07-08T04:43:59;0.50;;;0.50;;
80503;SDS011;69825;51.190;6.808;2023-07-08T04:49:10;0.50;;;0.50;;
80503;SDS011;69825;51.190;6.808;2023-07-08T04:51:35;0.50;;;0.50;;
80503;SDS011;69825;51.190;6.808;2023-07-08T04:54:02;0.50;;;0.50;;
80503;SDS011;69825;51.190;6.808;2023-07-08T04:56:49;1.02;;;0.43;;
80503;SDS011;69825;51.190;6.808;2023-07-08T04:59:17;0.40;;;0.40;;
80503;SDS011;69825;51.190;6.808;2023-07-08T05:01:44;0.43;;;0.43;;
80503;SDS011;69825;51.190;6.808;2023-07-08T05:04:11;0.50;;;0.50;;
80503;SDS011;69825;51.190;6.808;2023-07-08T05:06:38;0.50;;;0.50;;
80503;SDS011;69825;51.190;6.808;2023-07-08T05:09:04;0.50;;;0.50;;
80503;SDS011;69825;51.190;6.808;2023-07-08T05:11:29;0.50;;;0.50;;
80503;SDS011;69825;51.190;6.808;2023-07-08T05:13:55;0.50;;;0.50;;
80503;SDS011;69825;51.190;6.808;2023-07-08T05:16:21;0.50;;;0.50;;
80503;SDS011;69825;51.190;6.808;2023-07-08T05:18:46;0.50;;;0.50;;
80503;SDS011;69825;51.190;6.808;2023-07-08T05:21:12;0.60;;;0.60;;
80503;SDS011;69825;51.190;6.808;2023-07-08T05:23:38;0.50;;;0.50;;
80503;SDS011;69825;51.190;6.808;2023-07-08T05:26:04;0.50;;;0.50;;
80503;SDS011;69825;51.190;6.808;2023-07-08T05:28:31;0.60;;;0.60;;
80503;SDS011;69825;51.190;6.808;2023-07-08T05:30:56;0.50;;;0.50;;
80503;SDS011;69825;51.190;6.808;2023-07-08T05:33:25;0.50;;;0.50;;
80503;SDS011;69825;51.190;6.808;2023-07-08T05:35:52;0.50;;;0.50;;
80503;SDS011;69825;51.190;6.808;2023-07-08T05:38:18;0.40;;;0.40;;
80503;SDS011;69825;51.190;6.808;2023-07-08T05:40:50;0.50;;;0.50;;
80503;SDS011;69825;51.190;6.808;2023-07-08T05:43:19;0.50;;;0.50;;
80503;SDS011;69825;51.190;6.808;2023-07-08T05:45:45;0.50;;;0.50;;
80503;SDS011;69825;51.190;6.808;2023-07-08T05:48:10;0.32;;;0.32;;
80503;SDS011;69825;51.190;6.808;2023-07-08T05:50:36;0.50;;;0.50;;
80503;SDS011;69825;51.190;6.808;2023-07-08T05:53:01;0.40;;;0.40;;
80503;SDS011;69825;51.190;6.808;2023-07-08T05:55:27;0.50;;;0.50;;
80503;SDS011;69825;51.190;6.808;2023-07-08T05:57:52;0.50;;;0.50;;
80503;SDS011;69825;51.190;6.808;2023-07-08T06:00:17;0.50;;;0.50;;
80503;SDS011;69825;51.190;6.808;2023-07-08T06:02:43;0.40;;;0.40;;
80503;SDS011;69825;51.190;6.808;2023-07-08T06:05:08;0.45;;;0.45;;
80503;SDS011;69825;51.190;6.808;2023-07-08T06:07:34;0.40;;;0.40;;
80503;SDS011;69825;51.190;6.808;2023-07-08T06:09:59;0.50;;;0.50;;
80503;SDS011;69825;51.190;6.808;2023-07-08T06:12:25;0.50;;;0.50;;
80503;SDS011;69825;51.190;6.808;2023-07-08T06:14:50;0.47;;;0.47;;
80503;SDS011;69825;51.190;6.808;2023-07-08T06:17:16;0.40;;;0.40;;
80503;SDS011;69825;51.190;6.808;2023-07-08T06:19:42;0.40;;;0.40;;
80503;SDS011;69825;51.190;6.808;2023-07-08T06:22:07;0.60;;;0.60;;
80503;SDS011;69825;51.190;6.808;2023-07-08T06:24:33;0.40;;;0.40;;
80503;SDS011;69825;51.190;6.808;2023-07-08T06:26:58;0.50;;;0.50;;
80503;SDS011;69825;51.190;6.808;2023-07-08T06:29:24;0.50;;;0.50;;
80503;SDS011;69825;51.190;6.808;2023-07-08T06:31:49;0.40;;;0.40;;
80503;SDS011;69825;51.190;6.808;2023-07-08T06:34:14;0.45;;;0.45;;
80503;SDS011;69825;51.190;6.808;2023-07-08T06:36:40;0.50;;;0.50;;
80503;SDS011;69825;51.190;6.808;2023-07-08T06:39:06;0.50;;;0.50;;
80503;SDS011;69825;51.190;6.808;2023-07-08T06:41:33;0.50;;;0.50;;
80503;SDS011;69825;51.190;6.808;2023-07-08T06:43:59;0.50;;;0.50;;
80503;SDS011;69825;51.190;6.808;2023-07-08T06:46:24;0.43;;;0.43;;
80503;SDS011;69825;51.190;6.808;2023-07-08T06:48:49;0.50;;;0.50;;
80503;SDS011;69825;51.190;6.808;2023-07-08T06:51:15;0.50;;;0.50;;
80503;SDS011;69825;51.190;6.808;2023-07-08T06:53:40;0.40;;;0.40;;
80503;SDS011;69825;51.190;6.808;2023-07-08T06:56:05;0.50;;;0.50;;
80503;SDS011;69825;51.190;6.808;2023-07-08T06:58:31;0.47;;;0.47;;
80503;SDS011;69825;51.190;6.808;2023-07-08T07:00:56;0.50;;;0.50;;
80503;SDS011;69825;51.190;6.808;2023-07-08T07:03:21;0.40;;;0.40;;
80503;SDS011;69825;51.190;6.808;2023-07-08T07:05:47;0.50;;;0.50;;
80503;SDS011;69825;51.190;6.808;2023-07-08T07:08:12;0.50;;;0.50;;
80503;SDS011;69825;51.190;6.808;2023-07-08T07:10:37;0.57;;;0.57;;
80503;SDS011;69825;51.190;6.808;2023-07-08T07:13:03;0.60;;;0.60;;
80503;SDS011;69825;51.190;6.808;2023-07-08T07:15:28;0.40;;;0.40;;
80503;SDS011;69825;51.190;6.808;2023-07-08T07:17:55;0.60;;;0.60;;
80503;SDS011;69825;51.190;6.808;2023-07-08T07:20:21;0.50;;;0.50;;
80503;SDS011;69825;51.190;6.808;2023-07-08T07:22:46;0.50;;;0.50;;
80503;SDS011;69825;51.190;6.808;2023-07-08T07:25:11;0.50;;;0.50;;
80503;SDS011;69825;51.190;6.808;2023-07-08T07:27:37;0.60;;;0.60;;
80503;SDS011;69825;51.190;6.808;2023-07-08T07:30:02;0.40;;;0.40;;
80503;SDS011;69825;51.190;6.808;2023-07-08T07:32:28;0.40;;;0.40;;
80503;SDS011;69825;51.190;6.808;2023-07-08T07:34:54;0.40;;;0.40;;
80503;SDS011;69825;51.190;6.808;2023-07-08T07:37:20;0.50;;;0.50;;
80503;SDS011;69825;51.190;6.808;2023-07-08T07:39:47;0.50;;;0.50;;
80503;SDS011;69825;51.190;6.808;2023-07-08T07:42:13;0.60;;;0.60;;
80503;SDS011;69825;51.190;6.808;2023-07-08T07:44:39;0.60;;;0.60;;
80503;SDS011;69825;51.190;6.808;2023-07-08T07:47:05;0.60;;;0.60;;
80503;SDS011;69825;51.190;6.808;2023-07-08T07:49:31;0.50;;;0.50;;
80503;SDS011;69825;51.190;6.808;2023-07-08T07:51:56;0.50;;;0.50;;
80503;SDS011;69825;51.190;6.808;2023-07-08T07:54:22;0.50;;;0.50;;
80503;SDS011;69825;51.190;6.808;2023-07-08T07:56:47;0.40;;;0.40;;
80503;SDS011;69825;51.190;6.808;2023-07-08T07:59:12;0.60;;;0.60;;
80503;SDS011;69825;51.190;6.808;2023-07-08T08:01:38;0.32;;;0.32;;
80503;SDS011;69825;51.190;6.808;2023-07-08T08:04:03;0.52;;;0.52;;
80503;SDS011;69825;51.190;6.808;2023-07-08T08:06:29;0.55;;;0.55;;
80503;SDS011;69825;51.190;6.808;2023-07-08T08:08:55;0.50;;;0.50;;
80503;SDS011;69825;51.190;6.808;2023-07-08T08:11:21;0.50;;;0.50;;
80503;SDS011;69825;51.190;6.808;2023-07-08T08:13:47;0.50;;;0.50;;
80503;SDS011;69825;51.190;6.808;2023-07-08T08:16:12;0.50;;;0.50;;
80503;SDS011;69825;51.190;6.808;2023-07-08T08:18:37;0.50;;;0.50;;
80503;SDS011;69825;51.190;6.808;2023-07-08T08:21:03;0.50;;;0.50;;
80503;SDS011;69825;51.190;6.808;2023-07-08T08:23:28;0.60;;;0.60;;
80503;SDS011;69825;51.190;6.808;2023-07-08T08:25:53;0.60;;;0.60;;
80503;SDS011;69825;51.190;6.808;2023-07-08T08:28:19;0.50;;;0.50;;
80503;SDS011;69825;51.190;6.808;2023-07-08T08:30:48;0.50;;;0.50;;
80503;SDS011;69825;51.190;6.808;2023-07-08T08:33:14;0.60;;;0.60;;
80503;SDS011;69825;51.190;6.808;2023-07-08T08:35:41;0.60;;;0.60;;
80503;SDS011;69825;51.190;6.808;2023-07-08T08:38:07;0.60;;;0.60;;
80503;SDS011;69825;51.190;6.808;2023-07-08T08:40:33;0.50;;;0.50;;
80503;SDS011;69825;51.190;6.808;2023-07-08T08:48:18;0.50;;;0.50;;
80503;SDS011;69825;51.190;6.808;2023-07-08T08:50:52;0.43;;;0.43;;
80503;SDS011;69825;51.190;6.808;2023-07-08T08:53:21;0.50;;;0.50;;
80503;SDS011;69825;51.190;6.808;2023-07-08T08:55:55;0.60;;;0.60;;
80503;SDS011;69825;51.190;6.808;2023-07-08T08:58:33;0.50;;;0.50;;
80503;SDS011;69825;51.190;6.808;2023-07-08T09:01:15;0.55;;;0.55;;
80503;SDS011;69825;51.190;6.808;2023-07-08T09:03:55;0.60;;;0.60;;
80503;SDS011;69825;51.190;6.808;2023-07-08T09:06:26;0.50;;;0.50;;
80503;SDS011;69825;51.190;6.808;2023-07-08T09:08:54;0.60;;;0.60;;
80503;SDS011;69825;51.190;6.808;2023-07-08T09:11:35;0.60;;;0.60;;
80503;SDS011;69825;51.190;6.808;2023-07-08T09:14:12;0.52;;;0.52;;
80503;SDS011;69825;51.190;6.808;2023-07-08T09:16:49;0.50;;;0.50;;
80503;SDS011;69825;51.190;6.808;2023-07-08T09:19:24;0.50;;;0.50;;
80503;SDS011;69825;51.190;6.808;2023-07-08T09:22:03;0.60;;;0.60;;
80503;SDS011;69825;51.190;6.808;2023-07-08T09:24:49;0.52;;;0.52;;
80503;SDS011;69825;51.190;6.808;2023-07-08T09:27:20;0.60;;;0.60;;
80503;SDS011;69825;51.190;6.808;2023-07-08T09:29:45;0.50;;;0.50;;
80503;SDS011;69825;51.190;6.808;2023-07-08T09:32:13;0.50;;;0.50;;
80503;SDS011;69825;51.190;6.808;2023-07-08T09:34:45;0.50;;;0.50;;
80503;SDS011;69825;51.190;6.808;2023-07-08T09:37:27;0.55;;;0.55;;
80503;SDS011;69825;51.190;6.808;2023-07-08T09:39:58;0.60;;;0.60;;
80503;SDS011;69825;51.190;6.808;2023-07-08T09:42:27;0.60;;;0.60;;
80503;SDS011;69825;51.190;6.808;2023-07-08T09:44:58;0.50;;;0.50;;
80503;SDS011;69825;51.190;6.808;2023-07-08T09:47:27;0.57;;;0.57;;
80503;SDS011;69825;51.190;6.808;2023-07-08T09:49:58;0.68;;;0.68;;
80503;SDS011;69825;51.190;6.808;2023-07-08T09:52:24;0.68;;;0.68;;
80503;SDS011;69825;51.190;6.808;2023-07-08T09:54:51;0.55;;;0.55;;
80503;SDS011;69825;51.190;6.808;2023-07-08T09:59:53;0.60;;;0.60;;
80503;SDS011;69825;51.190;6.808;2023-07-08T10:04:54;0.55;;;0.55;;
80503;SDS011;69825;51.190;6.808;2023-07-08T10:07:22;0.50;;;0.50;;
80503;SDS011;69825;51.190;6.808;2023-07-08T10:09:48;0.60;;;0.60;;
80503;SDS011;69825;51.190;6.808;2023-07-08T10:12:18;0.52;;;0.52;;
80503;SDS011;69825;51.190;6.808;2023-07-08T10:14:46;0.63;;;0.63;;
80503;SDS011;69825;51.190;6.808;2023-07-08T10:17:15;0.70;;;0.70;;
80503;SDS011;69825;51.190;6.808;2023-07-08T10:19:42;0.60;;;0.60;;
80503;SDS011;69825;51.190;6.808;2023-07-08T10:27:57;0.68;;;0.68;;
80503;SDS011;69825;51.190;6.808;2023-07-08T10:30:31;0.50;;;0.50;;
80503;SDS011;69825;51.190;6.808;2023-07-08T10:36:10;0.60;;;0.60;;
80503;SDS011;69825;51.190;6.808;2023-07-08T10:44:30;0.70;;;0.70;;
80503;SDS011;69825;51.190;6.808;2023-07-08T10:48:03;0.60;;;0.60;;
80503;SDS011;69825;51.190;6.808;2023-07-08T10:50:16;0.60;;;0.60;;
80503;SDS011;69825;51.190;6.808;2023-07-08T10:52:50;0.68;;;0.68;;
80503;SDS011;69825;51.190;6.808;2023-07-08T10:55:41;0.60;;;0.60;;
80503;SDS011;69825;51.190;6.808;2023-07-08T11:00:55;0.57;;;0.57;;
80503;SDS011;69825;51.190;6.808;2023-07-08T11:03:51;0.60;;;0.60;;
80503;SDS011;69825;51.190;6.808;2023-07-08T11:09:09;0.60;;;0.60;;
80503;SDS011;69825;51.190;6.808;2023-07-08T11:11:47;0.60;;;0.60;;
80503;SDS011;69825;51.190;6.808;2023-07-08T11:14:20;0.80;;;0.80;;
80503;SDS011;69825;51.190;6.808;2023-07-08T11:19:53;0.60;;;0.60;;
80503;SDS011;69825;51.190;6.808;2023-07-08T11:22:35;0.60;;;0.60;;
80503;SDS011;69825;51.190;6.808;2023-07-08T11:25:09;0.60;;;0.60;;
80503;SDS011;69825;51.190;6.808;2023-07-08T11:27:43;0.60;;;0.60;;
80503;SDS011;69825;51.190;6.808;2023-07-08T11:30:13;0.60;;;0.60;;
80503;SDS011;69825;51.190;6.808;2023-07-08T11:32:42;0.60;;;0.60;;
80503;SDS011;69825;51.190;6.808;2023-07-08T11:35:17;0.70;;;0.70;;
80503;SDS011;69825;51.190;6.808;2023-07-08T11:37:46;0.60;;;0.60;;
80503;SDS011;69825;51.190;6.808;2023-07-08T11:42:41;0.57;;;0.57;;
80503;SDS011;69825;51.190;6.808;2023-07-08T11:48:12;0.70;;;0.70;;
80503;SDS011;69825;51.190;6.808;2023-07-08T11:50:50;0.80;;;0.80;;
80503;SDS011;69825;51.190;6.808;2023-07-08T11:55:55;0.60;;;0.60;;
80503;SDS011;69825;51.190;6.808;2023-07-08T11:58:23;0.70;;;0.70;;
80503;SDS011;69825;51.190;6.808;2023-07-08T12:01:32;0.60;;;0.60;;
80503;SDS011;69825;51.190;6.808;2023-07-08T12:03:38;0.70;;;0.70;;
80503;SDS011;69825;51.190;6.808;2023-07-08T12:09:13;0.82;;;0.80;;
80503;SDS011;69825;51.190;6.808;2023-07-08T12:12:02;0.80;;;0.80;;
80503;SDS011;69825;51.190;6.808;2023-07-08T12:14:30;0.82;;;0.82;;
80503;SDS011;69825;51.190;6.808;2023-07-08T12:16:56;0.80;;;0.80;;
80503;SDS011;69825;51.190;6.808;2023-07-08T12:19:22;0.80;;;0.80;;
80503;SDS011;69825;51.190;6.808;2023-07-08T12:21:53;0.88;;;0.88;;
80503;SDS011;69825;51.190;6.808;2023-07-08T12:24:18;0.90;;;0.90;;
80503;SDS011;69825;51.190;6.808;2023-07-08T12:26:50;0.70;;;0.70;;
80503;SDS011;69825;51.190;6.808;2023-07-08T12:29:15;0.80;;;0.80;;
80503;SDS011;69825;51.190;6.808;2023-07-08T12:31:41;0.98;;;0.98;;
80503;SDS011;69825;51.190;6.808;2023-07-08T12:34:10;1.00;;;1.00;;
80503;SDS011;69825;51.190;6.808;2023-07-08T12:36:38;0.73;;;0.70;;
80503;SDS011;69825;51.190;6.808;2023-07-08T12:39:04;0.88;;;0.88;;
80503;SDS011;69825;51.190;6.808;2023-07-08T12:41:31;0.90;;;0.90;;
80503;SDS011;69825;51.190;6.808;2023-07-08T12:43:59;1.00;;;1.00;;
80503;SDS011;69825;51.190;6.808;2023-07-08T12:46:26;1.08;;;1.00;;
80503;SDS011;69825;51.190;6.808;2023-07-08T12:48:52;1.08;;;1.08;;
80503;SDS011;69825;51.190;6.808;2023-07-08T12:51:22;1.10;;;1.10;;
80503;SDS011;69825;51.190;6.808;2023-07-08T12:53:49;0.93;;;0.93;;
80503;SDS011;69825;51.190;6.808;2023-07-08T12:56:16;1.00;;;1.00;;
80503;SDS011;69825;51.190;6.808;2023-07-08T12:58:45;1.10;;;1.05;;
80503;SDS011;69825;51.190;6.808;2023-07-08T13:01:18;1.00;;;1.00;;
80503;SDS011;69825;51.190;6.808;2023-07-08T13:03:45;1.10;;;1.00;;
80503;SDS011;69825;51.190;6.808;2023-07-08T13:06:15;1.08;;;1.08;;
80503;SDS011;69825;51.190;6.808;2023-07-08T13:08:43;1.30;;;1.20;;
80503;SDS011;69825;51.190;6.808;2023-07-08T13:11:11;1.00;;;1.00;;
80503;SDS011;69825;51.190;6.808;2023-07-08T13:13:42;1.05;;;1.05;;
80503;SDS011;69825;51.190;6.808;2023-07-08T13:16:13;1.05;;;1.05;;
80503;SDS011;69825;51.190;6.808;2023-07-08T13:18:39;1.30;;;1.20;;
80503;SDS011;69825;51.190;6.808;2023-07-08T13:21:07;1.10;;;1.10;;
80503;SDS011;69825;51.190;6.808;2023-07-08T13:23:36;1.10;;;1.10;;
80503;SDS011;69825;51.190;6.808;2023-07-08T13:26:11;1.10;;;1.10;;
80503;SDS011;69825;51.190;6.808;2023-07-08T13:28:38;1.45;;;1.35;;
80503;SDS011;69825;51.190;6.808;2023-07-08T13:34:06;1.40;;;1.30;;
80503;SDS011;69825;51.190;6.808;2023-07-08T13:36:35;1.02;;;1.02;;
80503;SDS011;69825;51.190;6.808;2023-07-08T13:39:05;1.25;;;1.15;;
80503;SDS011;69825;51.190;6.808;2023-07-08T13:41:33;1.50;;;1.40;;
80503;SDS011;69825;51.190;6.808;2023-07-08T13:44:05;1.27;;;1.17;;
80503;SDS011;69825;51.190;6.808;2023-07-08T13:49:12;1.27;;;1.27;;
80503;SDS011;69825;51.190;6.808;2023-07-08T13:51:41;1.20;;;1.20;;
80503;SDS011;69825;51.190;6.808;2023-07-08T13:54:09;1.45;;;1.35;;
80503;SDS011;69825;51.190;6.808;2023-07-08T13:59:08;1.52;;;1.30;;
80503;SDS011;69825;51.190;6.808;2023-07-08T14:01:37;1.48;;;1.38;;
80503;SDS011;69825;51.190;6.808;2023-07-08T14:04:04;1.02;;;1.02;;
80503;SDS011;69825;51.190;6.808;2023-07-08T14:06:35;1.38;;;1.27;;
80503;SDS011;69825;51.190;6.808;2023-07-08T14:09:18;1.10;;;1.10;;
80503;SDS011;69825;51.190;6.808;2023-07-08T14:11:45;1.30;;;1.20;;
80503;SDS011;69825;51.190;6.808;2023-07-08T14:14:12;1.25;;;1.23;;
80503;SDS011;69825;51.190;6.808;2023-07-08T14:16:42;1.88;;;1.15;;
80503;SDS011;69825;51.190;6.808;2023-07-08T14:19:13;1.30;;;1.20;;
80503;SDS011;69825;51.190;6.808;2023-07-08T14:21:41;1.27;;;1.17;;
80503;SDS011;69825;51.190;6.808;2023-07-08T14:24:08;1.23;;;1.17;;
80503;SDS011;69825;51.190;6.808;2023-07-08T14:26:40;1.30;;;1.23;;
80503;SDS011;69825;51.190;6.808;2023-07-08T14:29:07;1.17;;;1.13;;
80503;SDS011;69825;51.190;6.808;2023-07-08T14:31:33;1.40;;;1.30;;
80503;SDS011;69825;51.190;6.808;2023-07-08T14:34:05;1.10;;;1.10;;
80503;SDS011;69825;51.190;6.808;2023-07-08T14:36:32;1.38;;;1.27;;
80503;SDS011;69825;51.190;6.808;2023-07-08T14:38:58;1.10;;;1.10;;
80503;SDS011;69825;51.190;6.808;2023-07-08T14:41:24;1.30;;;1.20;;
80503;SDS011;69825;51.190;6.808;2023-07-08T14:43:51;1.25;;;1.15;;
80503;SDS011;69825;51.190;6.808;2023-07-08T14:46:16;1.10;;;1.10;;
80503;SDS011;69825;51.190;6.808;2023-07-08T14:48:42;1.20;;;1.20;;
80503;SDS011;69825;51.190;6.808;2023-07-08T14:51:07;1.40;;;1.30;;
80503;SDS011;69825;51.190;6.808;2023-07-08T14:53:33;1.20;;;1.10;;
80503;SDS011;69825;51.190;6.808;2023-07-08T14:55:59;1.30;;;1.25;;
80503;SDS011;69825;51.190;6.808;2023-07-08T14:58:28;1.30;;;1.25;;
80503;SDS011;69825;51.190;6.808;2023-07-08T15:00:57;1.50;;;1.40;;
80503;SDS011;69825;51.190;6.808;2023-07-08T15:03:24;1.40;;;1.30;;
80503;SDS011;69825;51.190;6.808;2023-07-08T15:05:50;1.63;;;1.40;;
80503;SDS011;69825;51.190;6.808;2023-07-08T15:08:16;1.20;;;1.20;;
80503;SDS011;69825;51.190;6.808;2023-07-08T15:10:44;1.20;;;1.20;;
80503;SDS011;69825;51.190;6.808;2023-07-08T15:13:12;1.35;;;1.25;;
80503;SDS011;69825;51.190;6.808;2023-07-08T15:15:37;1.23;;;1.20;;
80503;SDS011;69825;51.190;6.808;2023-07-08T15:18:16;1.38;;;1.27;;
80503;SDS011;69825;51.190;6.808;2023-07-08T15:20:44;1.25;;;1.15;;
80503;SDS011;69825;51.190;6.808;2023-07-08T15:23:09;1.00;;;1.00;;
80503;SDS011;69825;51.190;6.808;2023-07-08T15:25:35;1.30;;;1.20;;
80503;SDS011;69825;51.190;6.808;2023-07-08T15:28:02;1.17;;;1.10;;
80503;SDS011;69825;51.190;6.808;2023-07-08T15:30:29;1.20;;;1.20;;
80503;SDS011;69825;51.190;6.808;2023-07-08T15:32:55;1.25;;;1.20;;
80503;SDS011;69825;51.190;6.808;2023-07-08T15:35:22;1.50;;;1.40;;
80503;SDS011;69825;51.190;6.808;2023-07-08T15:37:50;1.30;;;1.20;;
80503;SDS011;69825;51.190;6.808;2023-07-08T15:40:16;1.17;;;1.17;;
80503;SDS011;69825;51.190;6.808;2023-07-08T15:42:48;1.08;;;1.08;;
80503;SDS011;69825;51.190;6.808;2023-07-08T15:45:16;1.35;;;1.27;;
80503;SDS011;69825;51.190;6.808;2023-07-08T15:47:46;1.20;;;1.20;;
80503;SDS011;69825;51.190;6.808;2023-07-08T15:50:12;1.45;;;1.35;;
80503;SDS011;69825;51.190;6.808;2023-07-08T15:52:40;1.40;;;1.30;;
80503;SDS011;69825;51.190;6.808;2023-07-08T15:55:06;1.30;;;1.20;;